createdAt,value
2018-12-27T00:01:26.249Z,52.10
2018-12-27T00:03:54.129Z,50.13
2018-12-27T00:06:22.211Z,50.40
2018-12-27T00:08:50.609Z,47.53
2018-12-27T00:11:18.406Z,56.30
2018-12-27T00:13:45.644Z,49.23
2018-12-27T00:16:13.016Z,49.40
2018-12-27T00:18:40.238Z,50.47
2018-12-27T00:21:07.863Z,45.93
2018-12-27T00:23:35.132Z,43.80
2018-12-27T00:26:02.234Z,52.73
2018-12-27T00:28:29.861Z,46.90
2018-12-27T00:30:57.732Z,49.43
2018-12-27T00:33:25.092Z,42.73
2018-12-27T00:35:53.629Z,44.13
2018-12-27T00:38:21.708Z,48.90
2018-12-27T00:40:49.229Z,44.53
2018-12-27T00:43:17.042Z,57.17
2018-12-27T00:45:44.173Z,45.60
2018-12-27T00:48:11.300Z,44.50
2018-12-27T00:50:38.728Z,42.70
2018-12-27T00:53:06.519Z,41.30
2018-12-27T00:55:33.695Z,38.40
2018-12-27T00:58:01.175Z,40.57
2018-12-27T01:00:28.309Z,42.20
2018-12-27T01:02:56.104Z,46.73
2018-12-27T01:05:23.981Z,47.27
2018-12-27T01:07:51.157Z,43.30
2018-12-27T01:10:18.950Z,42.70
2018-12-27T01:12:46.453Z,40.23
2018-12-27T01:15:14.592Z,44.73
2018-12-27T01:17:42.421Z,44.23
2018-12-27T01:20:09.936Z,49.47
2018-12-27T01:22:38.004Z,48.27
2018-12-27T01:25:06.149Z,52.60
2018-12-27T01:27:33.569Z,52.63
2018-12-27T01:30:00.667Z,46.13
2018-12-27T01:32:28.185Z,49.37
2018-12-27T01:34:55.662Z,58.13
2018-12-27T01:37:22.800Z,45.03
2018-12-27T01:39:50.195Z,56.50
2018-12-27T01:42:18.018Z,57.10
2018-12-27T01:44:46.093Z,52.67
2018-12-27T01:47:14.533Z,53.77
2018-12-27T01:49:42.258Z,53.73
2018-12-27T01:52:10.105Z,51.47
2018-12-27T01:54:37.660Z,46.60
2018-12-27T01:57:05.148Z,50.80
2018-12-27T01:59:32.681Z,58.47
2018-12-27T02:02:00.450Z,54.87
2018-12-27T02:04:28.222Z,53.00
2018-12-27T02:06:55.613Z,57.73
2018-12-27T02:09:23.797Z,56.17
2018-12-27T02:11:51.227Z,61.77
2018-12-27T02:14:18.990Z,64.97
2018-12-27T02:17:19.896Z,65.40
2018-12-27T02:19:48.084Z,55.10
2018-12-27T02:22:15.424Z,55.93
2018-12-27T02:24:42.910Z,60.03
2018-12-27T02:27:10.624Z,67.60
2018-12-27T02:29:38.056Z,57.60
2018-12-27T02:32:05.218Z,49.60
2018-12-27T02:34:33.322Z,43.73
2018-12-27T02:37:01.474Z,49.53
2018-12-27T02:39:28.592Z,45.47
2018-12-27T02:41:56.017Z,44.63
2018-12-27T02:44:23.787Z,40.87
2018-12-27T02:46:51.201Z,45.87
2018-12-27T02:49:19.223Z,45.97
2018-12-27T02:51:47.018Z,51.93
2018-12-27T02:54:21.025Z,52.73
2018-12-27T02:56:48.886Z,42.63
2018-12-27T02:59:17.061Z,48.43
2018-12-27T03:01:44.793Z,59.63
2018-12-27T03:04:12.213Z,51.77
2018-12-27T03:06:39.705Z,50.97
2018-12-27T03:09:07.178Z,52.13
2018-12-27T03:11:35.030Z,48.23
2018-12-27T03:14:03.000Z,52.60
2018-12-27T03:16:30.139Z,46.10
2018-12-27T03:18:57.953Z,52.53
2018-12-27T03:21:25.724Z,54.17
2018-12-27T03:23:53.492Z,52.27
2018-12-27T03:26:20.638Z,50.63
2018-12-27T03:28:48.394Z,40.83
2018-12-27T03:31:16.231Z,44.90
2018-12-27T03:33:52.482Z,42.93
2018-12-27T03:36:13.297Z,44.30
2018-12-27T03:38:40.758Z,51.53
2018-12-27T03:41:08.487Z,47.07
2018-12-27T03:43:35.954Z,52.97
2018-12-27T03:46:03.054Z,50.57
2018-12-27T03:48:30.215Z,54.27
2018-12-27T03:50:58.425Z,53.43
2018-12-27T03:53:25.924Z,54.17
2018-12-27T03:55:53.674Z,65.63
2018-12-27T03:58:21.170Z,54.53
2018-12-27T04:00:48.587Z,59.27
2018-12-27T04:03:16.066Z,55.23
2018-12-27T04:05:43.554Z,56.10
2018-12-27T04:08:11.757Z,61.27
2018-12-27T04:10:39.220Z,56.23
2018-12-27T04:13:06.700Z,57.60
2018-12-27T04:15:34.532Z,62.83
2018-12-27T04:18:01.954Z,55.50
2018-12-27T04:20:30.404Z,57.73
2018-12-27T04:22:57.741Z,55.60
2018-12-27T04:25:26.558Z,59.93
2018-12-27T04:27:54.035Z,59.23
2018-12-27T04:30:21.893Z,64.50
2018-12-27T04:32:50.303Z,47.90
2018-12-27T04:35:18.150Z,58.03
2018-12-27T04:37:45.763Z,55.43
2018-12-27T04:40:13.220Z,62.07
2018-12-27T04:42:42.339Z,57.67
2018-12-27T04:45:10.101Z,58.07
2018-12-27T04:47:37.316Z,55.73
2018-12-27T04:50:04.857Z,58.67
2018-12-27T04:52:32.714Z,51.13
2018-12-27T04:55:00.522Z,53.67
2018-12-27T04:57:28.488Z,53.80
2018-12-27T04:59:55.934Z,53.33
2018-12-27T05:02:24.034Z,52.17
2018-12-27T05:04:51.521Z,55.53
2018-12-27T05:07:19.043Z,46.03
2018-12-27T05:09:46.524Z,49.23
2018-12-27T05:12:14.045Z,47.77
2018-12-27T05:14:41.551Z,55.20
2018-12-27T05:17:09.054Z,47.83
2018-12-27T05:19:36.331Z,56.90
2018-12-27T05:22:04.146Z,54.17
2018-12-27T05:24:31.589Z,56.27
2018-12-27T05:26:58.712Z,58.20
2018-12-27T05:29:26.378Z,53.83
2018-12-27T05:31:53.497Z,52.50
2018-12-27T05:34:26.144Z,52.03
2018-12-27T05:36:50.541Z,59.00
2018-12-27T05:39:18.035Z,55.73
2018-12-27T05:41:45.467Z,53.13
2018-12-27T05:44:13.209Z,54.30
2018-12-27T05:46:40.727Z,55.50
2018-12-27T05:49:08.250Z,55.10
2018-12-27T05:51:35.803Z,49.00
2018-12-27T05:54:03.020Z,57.70
2018-12-27T05:56:30.504Z,57.10
2018-12-27T05:58:57.639Z,57.00
2018-12-27T06:01:24.806Z,53.87
2018-12-27T06:03:52.057Z,54.03
2018-12-27T06:06:19.180Z,50.53
2018-12-27T06:08:46.665Z,56.63
2018-12-27T06:11:15.197Z,51.40
2018-12-27T06:13:42.843Z,56.70
2018-12-27T06:16:10.337Z,54.37
2018-12-27T06:18:37.536Z,59.27
2018-12-27T06:21:05.409Z,57.10
2018-12-27T06:23:32.546Z,60.33
2018-12-27T06:25:59.770Z,54.03
2018-12-27T06:28:27.277Z,50.73
2018-12-27T06:30:54.422Z,51.03
2018-12-27T06:33:21.853Z,52.63
2018-12-27T06:35:49.214Z,51.70
2018-12-27T06:38:16.693Z,45.80
2018-12-27T06:40:44.395Z,49.47
2018-12-27T06:43:12.474Z,47.10
2018-12-27T06:45:40.256Z,41.60
2018-12-27T06:48:07.417Z,47.33
2018-12-27T06:50:34.563Z,56.27
2018-12-27T06:53:01.924Z,49.37
2018-12-27T06:55:29.222Z,44.13
2018-12-27T06:57:57.147Z,49.30
2018-12-27T07:00:24.763Z,48.57
2018-12-27T07:02:52.233Z,41.40
2018-12-27T07:05:19.709Z,42.70
2018-12-27T07:07:46.869Z,43.87
2018-12-27T07:10:14.262Z,50.37
2018-12-27T07:12:41.577Z,50.27
2018-12-27T07:15:09.085Z,48.87
2018-12-27T07:17:36.894Z,52.23
2018-12-27T07:20:05.239Z,51.63
2018-12-27T07:22:32.760Z,45.67
2018-12-27T07:25:00.634Z,49.27
2018-12-27T07:27:28.430Z,47.97
2018-12-27T07:29:55.833Z,54.40
2018-12-27T07:32:22.988Z,44.93
2018-12-27T07:34:56.471Z,43.80
2018-12-27T07:37:19.618Z,48.73
2018-12-27T07:39:47.017Z,49.90
2018-12-27T07:42:14.609Z,57.13
2018-12-27T07:44:43.041Z,50.57
2018-12-27T07:47:10.460Z,53.97
2018-12-27T07:49:38.430Z,58.33
2018-12-27T07:52:05.510Z,56.47
2018-12-27T07:54:33.201Z,56.07
2018-12-27T07:57:00.682Z,55.80
2018-12-27T07:59:27.990Z,56.40
2018-12-27T08:01:56.154Z,60.53
2018-12-27T08:04:23.514Z,53.67
2018-12-27T08:06:51.263Z,46.07
2018-12-27T08:09:18.747Z,56.43
2018-12-27T08:11:46.464Z,56.13
2018-12-27T08:14:14.344Z,53.97
2018-12-27T08:16:43.134Z,54.07
2018-12-27T08:19:10.849Z,43.63
2018-12-27T08:21:38.422Z,44.77
2018-12-27T08:24:06.214Z,48.13
2018-12-27T08:26:34.084Z,47.83
2018-12-27T08:29:01.250Z,45.00
2018-12-27T08:31:32.464Z,42.60
2018-12-27T08:33:59.813Z,41.43
2018-12-27T08:36:27.013Z,36.17
2018-12-27T08:38:54.831Z,44.63
2018-12-27T08:41:22.240Z,41.03
2018-12-27T08:43:49.769Z,42.43
2018-12-27T08:46:16.910Z,44.20
2018-12-27T08:48:44.739Z,41.97
2018-12-27T08:51:12.504Z,45.33
2018-12-27T08:53:40.501Z,43.73
2018-12-27T08:56:07.792Z,42.17
2018-12-27T08:58:35.749Z,41.37
2018-12-27T09:01:02.965Z,43.47
2018-12-27T09:03:30.404Z,37.47
2018-12-27T09:05:58.185Z,38.77
2018-12-27T09:08:26.115Z,43.17
2018-12-27T09:10:53.909Z,35.47
2018-12-27T09:13:21.165Z,42.63
2018-12-27T09:15:48.689Z,42.30
2018-12-27T09:18:16.216Z,39.07
2018-12-27T09:20:43.339Z,39.20
2018-12-27T09:23:11.037Z,42.10
2018-12-27T09:25:38.628Z,43.43
2018-12-27T09:28:05.874Z,43.43
2018-12-27T09:30:33.440Z,51.90
2018-12-27T09:33:01.790Z,48.30
2018-12-27T09:35:29.814Z,46.63
2018-12-27T09:37:56.928Z,52.33
2018-12-27T09:40:24.518Z,46.10
2018-12-27T09:42:51.664Z,42.07
2018-12-27T09:45:19.273Z,40.27
2018-12-27T09:47:46.957Z,44.30
2018-12-27T09:50:14.821Z,39.23
2018-12-27T09:52:42.583Z,36.70
2018-12-27T09:55:10.515Z,38.50
2018-12-27T09:57:37.687Z,39.80
2018-12-27T10:00:06.072Z,41.63
2018-12-27T10:02:33.681Z,39.10
2018-12-27T10:05:01.536Z,39.30
2018-12-27T10:07:29.076Z,37.43
2018-12-27T10:09:57.213Z,33.97
2018-12-27T10:12:24.609Z,37.90
2018-12-27T10:14:52.430Z,37.30
2018-12-27T10:17:22.673Z,35.80
2018-12-27T10:19:50.179Z,42.93
2018-12-27T10:22:18.092Z,45.63
2018-12-27T10:24:45.992Z,40.17
2018-12-27T10:27:13.769Z,38.00
2018-12-27T10:29:41.496Z,36.17
2018-12-27T10:32:09.064Z,34.83
2018-12-27T10:34:36.466Z,38.07
2018-12-27T10:37:03.850Z,34.97
2018-12-27T10:39:31.749Z,36.57
2018-12-27T10:41:59.024Z,41.30
2018-12-27T10:44:26.172Z,38.90
2018-12-27T10:46:54.515Z,35.07
2018-12-27T10:49:22.245Z,37.50
2018-12-27T10:51:49.738Z,41.23
2018-12-27T10:54:17.246Z,44.50
2018-12-27T10:56:44.746Z,43.60
2018-12-27T10:59:12.343Z,42.37
2018-12-27T11:01:40.145Z,40.33
2018-12-27T11:04:08.018Z,40.23
2018-12-27T11:06:35.252Z,36.73
2018-12-27T11:09:04.869Z,40.97
2018-12-27T11:11:32.371Z,38.17
2018-12-27T11:13:59.482Z,41.10
2018-12-27T11:16:27.393Z,41.63
2018-12-27T11:18:55.312Z,42.13
2018-12-27T11:21:26.424Z,37.23
2018-12-27T11:23:53.872Z,34.43
2018-12-27T11:26:23.015Z,36.07
2018-12-27T11:28:52.625Z,37.73
2018-12-27T11:31:20.042Z,40.23
2018-12-27T11:33:47.162Z,39.67
2018-12-27T11:36:17.409Z,36.27
2018-12-27T11:38:43.869Z,38.70
2018-12-27T11:41:12.092Z,39.33
2018-12-27T11:43:39.929Z,35.47
2018-12-27T11:46:07.722Z,38.90
2018-12-27T11:48:35.366Z,34.57
2018-12-27T11:51:02.872Z,37.57
2018-12-27T11:53:30.694Z,34.80
2018-12-27T11:55:58.054Z,33.83
2018-12-27T11:58:25.633Z,35.57
2018-12-27T12:00:52.920Z,39.30
2018-12-27T12:03:20.060Z,35.97
2018-12-27T12:05:48.102Z,36.47
2018-12-27T12:08:15.805Z,32.03
2018-12-27T12:10:43.638Z,34.37
2018-12-27T12:13:11.113Z,32.53
2018-12-27T12:15:38.243Z,35.03
2018-12-27T12:18:05.354Z,29.20
2018-12-27T12:20:32.504Z,31.80
2018-12-27T12:23:00.549Z,35.93
2018-12-27T12:25:27.752Z,31.73
2018-12-27T12:27:55.330Z,36.20
2018-12-27T12:30:22.836Z,37.23
2018-12-27T12:32:50.503Z,32.47
2018-12-27T12:35:18.025Z,33.37
2018-12-27T12:37:46.871Z,34.80
2018-12-27T12:40:14.075Z,35.13
2018-12-27T12:42:41.262Z,36.50
2018-12-27T12:45:08.812Z,29.83
2018-12-27T12:47:36.212Z,32.83
2018-12-27T12:50:05.397Z,33.40
2018-12-27T12:52:33.126Z,35.87
2018-12-27T12:55:00.257Z,37.83
2018-12-27T12:57:27.730Z,35.60
2018-12-27T12:59:55.311Z,41.37
2018-12-27T13:02:22.705Z,43.63
2018-12-27T13:04:50.186Z,43.03
2018-12-27T13:07:20.567Z,43.33
2018-12-27T13:09:49.002Z,41.60
2018-12-27T13:12:16.600Z,38.20
2018-12-27T13:14:43.835Z,36.90
2018-12-27T13:17:11.097Z,41.60
2018-12-27T13:19:38.341Z,37.57
2018-12-27T13:22:06.263Z,31.70
2018-12-27T13:24:33.718Z,43.23
2018-12-27T13:27:01.421Z,38.87
2018-12-27T13:29:29.117Z,32.93
2018-12-27T13:31:56.950Z,30.60
2018-12-27T13:34:24.349Z,31.90
2018-12-27T13:36:51.828Z,38.13
2018-12-27T13:39:19.378Z,32.77
2018-12-27T13:41:46.837Z,36.33
2018-12-27T13:44:13.969Z,33.60
2018-12-27T13:46:41.610Z,31.07
2018-12-27T13:49:09.082Z,26.77
2018-12-27T13:51:36.912Z,31.60
2018-12-27T13:54:04.359Z,27.70
2018-12-27T13:56:31.502Z,26.90
2018-12-27T13:58:58.653Z,27.17
2018-12-27T14:01:26.614Z,29.57
2018-12-27T14:03:54.162Z,33.03
2018-12-27T14:06:22.047Z,32.73
2018-12-27T14:08:49.694Z,35.63
2018-12-27T14:11:17.883Z,39.83
2018-12-27T14:13:45.600Z,38.53
2018-12-27T14:16:12.885Z,37.83
2018-12-27T14:18:40.166Z,33.10
2018-12-27T14:21:07.773Z,34.33
2018-12-27T14:23:35.274Z,35.17
2018-12-27T14:26:02.918Z,34.13
2018-12-27T14:28:30.480Z,34.63
2018-12-27T14:30:57.703Z,34.30
2018-12-27T14:33:25.270Z,35.93
2018-12-27T14:35:53.150Z,37.67
2018-12-27T14:38:20.689Z,37.03
2018-12-27T14:40:48.243Z,34.53
2018-12-27T14:43:15.541Z,34.40
2018-12-27T14:45:42.997Z,37.57
2018-12-27T14:48:11.046Z,38.43
2018-12-27T14:50:39.005Z,37.80
2018-12-27T14:53:06.814Z,33.77
2018-12-27T14:55:34.059Z,34.43
2018-12-27T14:58:01.571Z,33.53
2018-12-27T15:00:28.804Z,35.87
2018-12-27T15:02:56.090Z,42.67
2018-12-27T15:05:24.217Z,40.03
2018-12-27T15:07:51.484Z,36.83
2018-12-27T15:10:18.613Z,32.27
2018-12-27T15:12:45.893Z,37.17
2018-12-27T15:15:13.361Z,41.83
2018-12-27T15:17:40.909Z,39.23
2018-12-27T15:20:08.665Z,35.57
2018-12-27T15:22:35.858Z,38.00
2018-12-27T15:25:03.738Z,38.13
2018-12-27T15:27:31.371Z,40.83
2018-12-27T15:29:59.514Z,32.40
2018-12-27T15:32:26.729Z,46.43
2018-12-27T15:34:54.658Z,40.37
2018-12-27T15:37:22.080Z,45.03
2018-12-27T15:39:50.237Z,40.27
2018-12-27T15:42:17.664Z,44.10
2018-12-27T15:44:45.382Z,45.67
2018-12-27T15:47:12.498Z,53.13
2018-12-27T15:49:40.249Z,45.00
2018-12-27T15:52:07.551Z,47.00
2018-12-27T15:54:35.069Z,40.63
2018-12-27T15:57:02.561Z,43.20
2018-12-27T15:59:30.256Z,42.43
2018-12-27T16:01:57.717Z,41.33
2018-12-27T16:04:25.940Z,37.77
2018-12-27T16:06:53.166Z,33.83
2018-12-27T16:09:20.313Z,38.37
2018-12-27T16:11:48.128Z,37.83
2018-12-27T16:14:15.642Z,34.87
2018-12-27T16:16:43.188Z,32.77
2018-12-27T16:19:10.657Z,40.90
2018-12-27T16:21:38.905Z,37.37
2018-12-27T16:24:06.365Z,36.37
2018-12-27T16:26:33.853Z,43.33
2018-12-27T16:29:01.513Z,43.60
2018-12-27T16:31:29.021Z,40.23
2018-12-27T16:33:56.638Z,38.83
2018-12-27T16:36:23.899Z,47.43
2018-12-27T16:38:51.030Z,41.60
2018-12-27T16:41:19.117Z,40.57
2018-12-27T16:43:46.918Z,41.30
2018-12-27T16:46:14.808Z,77.43
2018-12-27T16:48:41.966Z,41.90
2018-12-27T16:51:10.185Z,43.33
2018-12-27T16:53:37.709Z,43.93
2018-12-27T16:56:05.334Z,42.03
2018-12-27T16:58:33.029Z,45.50
2018-12-27T17:01:00.976Z,40.40
2018-12-27T17:03:28.549Z,41.83
2018-12-27T17:05:56.025Z,48.30
2018-12-27T17:08:23.282Z,59.23
2018-12-27T17:10:50.569Z,46.57
2018-12-27T17:13:18.592Z,40.73
2018-12-27T17:15:45.997Z,45.83
2018-12-27T17:18:13.143Z,45.37
2018-12-27T17:20:41.393Z,37.37
2018-12-27T17:23:09.733Z,40.67
2018-12-27T17:25:37.546Z,44.33
2018-12-27T17:28:05.178Z,47.03
2018-12-27T17:30:32.530Z,44.63
2018-12-27T17:32:59.644Z,45.97
2018-12-27T17:35:27.341Z,45.53
2018-12-27T17:37:54.471Z,41.97
2018-12-27T17:40:21.648Z,37.70
2018-12-27T17:42:49.651Z,39.57
2018-12-27T17:45:16.993Z,42.70
2018-12-27T17:47:44.626Z,38.97
2018-12-27T17:50:12.885Z,47.13
2018-12-27T17:52:40.909Z,41.27
2018-12-27T17:55:08.157Z,41.60
2018-12-27T17:57:35.570Z,43.37
2018-12-27T18:00:04.787Z,39.07
2018-12-27T18:02:34.351Z,36.57
2018-12-27T18:05:02.248Z,32.43
2018-12-27T18:07:30.779Z,34.60
2018-12-27T18:09:58.849Z,40.63
2018-12-27T18:12:26.422Z,42.10
2018-12-27T18:15:03.175Z,46.60
2018-12-27T18:17:30.913Z,44.57
2018-12-27T18:19:58.769Z,39.67
2018-12-27T18:22:27.003Z,47.40
2018-12-27T18:24:54.788Z,39.57
2018-12-27T18:27:22.161Z,40.27
2018-12-27T18:29:49.914Z,40.60
2018-12-27T18:32:17.670Z,44.50
2018-12-27T18:34:44.865Z,45.83
2018-12-27T18:37:12.393Z,45.97
2018-12-27T18:39:40.094Z,44.77
2018-12-27T18:42:08.065Z,47.20
2018-12-27T18:44:35.328Z,48.13
2018-12-27T18:47:03.013Z,44.50
2018-12-27T18:49:31.401Z,51.63
2018-12-27T18:51:59.296Z,54.37
2018-12-27T18:54:26.912Z,55.10
2018-12-27T18:56:55.014Z,54.50
2018-12-27T18:59:22.631Z,48.17
2018-12-27T19:01:50.769Z,43.67
2018-12-27T19:04:18.375Z,45.93
2018-12-27T19:06:45.906Z,45.47
2018-12-27T19:09:13.849Z,50.37
2018-12-27T19:13:06.641Z,47.87
2018-12-27T19:15:51.689Z,50.33
2018-12-27T19:18:24.210Z,45.93
2018-12-27T19:21:04.685Z,53.50
2018-12-27T19:23:32.640Z,54.83
2018-12-27T19:26:00.371Z,51.70
2018-12-27T19:28:27.776Z,53.83
2018-12-27T19:30:55.819Z,52.00
2018-12-27T19:33:23.696Z,59.57
2018-12-27T19:35:51.133Z,50.00
2018-12-27T19:38:18.272Z,48.60
2018-12-27T19:40:46.479Z,51.37
2018-12-27T19:43:13.642Z,46.60
2018-12-27T19:45:41.611Z,44.03
2018-12-27T19:48:09.224Z,50.60
2018-12-27T19:50:37.005Z,54.93
2018-12-27T19:53:04.340Z,63.50
2018-12-27T19:55:31.712Z,53.67
2018-12-27T19:57:59.736Z,49.90
2018-12-27T20:00:28.302Z,54.53
2018-12-27T20:02:56.111Z,55.23
2018-12-27T20:05:24.470Z,60.00
2018-12-27T20:07:59.093Z,54.93
2018-12-27T20:10:21.838Z,51.87
2018-12-27T20:12:49.620Z,52.83
2018-12-27T20:15:17.188Z,52.33
2018-12-27T20:17:44.757Z,50.60
2018-12-27T20:20:13.358Z,49.47
2018-12-27T20:22:40.530Z,44.03
2018-12-27T20:25:08.553Z,47.57
2018-12-27T20:27:36.600Z,48.33
2018-12-27T20:30:06.382Z,46.87
2018-12-27T20:32:34.236Z,48.27
2018-12-27T20:35:01.623Z,50.50
2018-12-27T20:37:28.829Z,43.87
2018-12-27T20:39:56.665Z,42.80
2018-12-27T20:42:24.461Z,34.73
2018-12-27T20:44:51.954Z,42.00
2018-12-27T20:47:22.657Z,45.77
2018-12-27T20:49:50.387Z,56.50
2018-12-27T20:52:17.865Z,50.33
2018-12-27T20:54:45.728Z,53.70
2018-12-27T20:57:13.176Z,48.40
2018-12-27T20:59:40.906Z,60.43
2018-12-27T21:02:09.287Z,47.67
2018-12-27T21:04:37.065Z,58.10
2018-12-27T21:07:04.468Z,64.60
2018-12-27T21:09:32.042Z,58.40
2018-12-27T21:11:59.821Z,51.80
2018-12-27T21:14:27.138Z,53.40
2018-12-27T21:16:54.659Z,61.57
2018-12-27T21:19:22.968Z,61.57
2018-12-27T21:21:50.561Z,57.43
2018-12-27T21:24:17.927Z,47.53
2018-12-27T21:26:45.888Z,48.90
2018-12-27T21:29:13.691Z,59.33
2018-12-27T21:31:40.840Z,54.63
2018-12-27T21:34:08.591Z,47.00
2018-12-27T21:36:36.527Z,56.13
2018-12-27T21:39:06.851Z,59.47
2018-12-27T21:41:34.332Z,62.77
2018-12-27T21:44:02.581Z,48.00
2018-12-27T21:46:30.130Z,59.87
2018-12-27T21:48:57.356Z,71.17
2018-12-27T21:51:24.721Z,61.33
2018-12-27T21:53:52.524Z,58.83
2018-12-27T21:56:19.970Z,65.13
2018-12-27T21:58:48.662Z,66.17
2018-12-27T22:01:17.244Z,66.90
2018-12-27T22:03:44.664Z,60.93
2018-12-27T22:06:12.194Z,69.67
2018-12-27T22:08:39.344Z,62.53
2018-12-27T22:11:06.911Z,71.73
2018-12-27T22:13:35.285Z,69.90
2018-12-27T22:16:03.874Z,78.03
2018-12-27T22:18:34.911Z,73.30
2018-12-27T22:21:04.536Z,65.63
2018-12-27T22:23:31.847Z,61.13
2018-12-27T22:25:59.395Z,68.70
2018-12-27T22:28:26.979Z,65.70
2018-12-27T22:30:54.741Z,65.80
2018-12-27T22:33:24.004Z,67.53
2018-12-27T22:35:51.125Z,62.87
2018-12-27T22:38:18.914Z,70.97
2018-12-27T22:40:46.128Z,67.50
2018-12-27T22:43:13.312Z,61.00
2018-12-27T22:45:40.789Z,62.27
2018-12-27T22:48:08.777Z,68.53
2018-12-27T22:50:36.553Z,61.67
2018-12-27T22:53:03.832Z,67.43
2018-12-27T22:55:31.268Z,68.17
2018-12-27T22:57:58.793Z,65.63
2018-12-27T23:00:39.230Z,66.10
2018-12-27T23:03:07.131Z,68.43
2018-12-27T23:05:34.506Z,63.63
2018-12-27T23:08:02.033Z,67.03
2018-12-27T23:10:29.305Z,54.43
2018-12-27T23:12:56.826Z,63.57
2018-12-27T23:15:24.686Z,76.00
2018-12-27T23:17:52.653Z,62.03
2018-12-27T23:20:20.374Z,76.47
2018-12-27T23:22:48.341Z,76.27
2018-12-27T23:25:15.884Z,77.17
2018-12-27T23:27:43.057Z,77.33
2018-12-27T23:30:10.461Z,74.03
2018-12-27T23:32:37.733Z,89.10
2018-12-27T23:35:05.709Z,78.43
2018-12-27T23:37:32.864Z,69.77
2018-12-27T23:40:00.397Z,73.93
2018-12-27T23:42:28.531Z,76.67
2018-12-27T23:44:55.789Z,80.60
2018-12-27T23:47:22.939Z,89.87
2018-12-27T23:49:50.609Z,79.13
2018-12-27T23:52:17.857Z,77.40
2018-12-27T23:54:46.074Z,77.20
2018-12-27T23:57:13.768Z,86.50
2018-12-27T23:59:41.678Z,84.33
